sensor_id;sensor_type;location;lat;lon;timestamp;P1;durP1;ratioP1;P2;durP2;ratioP2
62353;SDS011;48391;49.184;2.418;2023-06-24T00:02:12;0.73;;;0.73;;
62353;SDS011;48391;49.184;2.418;2023-06-24T00:04:38;0.82;;;0.50;;
62353;SDS011;48391;49.184;2.418;2023-06-24T00:07:04;0.70;;;0.70;;
62353;SDS011;48391;49.184;2.418;2023-06-24T00:09:30;0.38;;;0.35;;
62353;SDS011;48391;49.184;2.418;2023-06-24T00:11:57;0.45;;;0.45;;
62353;SDS011;48391;49.184;2.418;2023-06-24T00:14:26;0.52;;;0.52;;
62353;SDS011;48391;49.184;2.418;2023-06-24T00:16:53;1.95;;;0.77;;
62353;SDS011;48391;49.184;2.418;2023-06-24T00:19:20;0.47;;;0.45;;
62353;SDS011;48391;49.184;2.418;2023-06-24T00:21:46;0.40;;;0.40;;
62353;SDS011;48391;49.184;2.418;2023-06-24T00:24:12;0.40;;;0.40;;
62353;SDS011;48391;49.184;2.418;2023-06-24T00:26:38;0.47;;;0.30;;
62353;SDS011;48391;49.184;2.418;2023-06-24T00:29:04;0.35;;;0.35;;
62353;SDS011;48391;49.184;2.418;2023-06-24T00:31:30;0.63;;;0.63;;
62353;SDS011;48391;49.184;2.418;2023-06-24T00:33:56;0.45;;;0.43;;
62353;SDS011;48391;49.184;2.418;2023-06-24T00:36:22;0.57;;;0.57;;
62353;SDS011;48391;49.184;2.418;2023-06-24T00:38:48;0.50;;;0.50;;
62353;SDS011;48391;49.184;2.418;2023-06-24T00:41:16;0.40;;;0.40;;
62353;SDS011;48391;49.184;2.418;2023-06-24T00:43:43;0.50;;;0.50;;
62353;SDS011;48391;49.184;2.418;2023-06-24T00:46:12;0.52;;;0.52;;
62353;SDS011;48391;49.184;2.418;2023-06-24T00:48:40;0.40;;;0.40;;
62353;SDS011;48391;49.184;2.418;2023-06-24T00:51:06;0.50;;;0.50;;
62353;SDS011;48391;49.184;2.418;2023-06-24T00:53:32;0.80;;;0.50;;
62353;SDS011;48391;49.184;2.418;2023-06-24T00:55:58;0.30;;;0.30;;
62353;SDS011;48391;49.184;2.418;2023-06-24T00:58:28;0.32;;;0.32;;
62353;SDS011;48391;49.184;2.418;2023-06-24T01:00:55;0.40;;;0.40;;
62353;SDS011;48391;49.184;2.418;2023-06-24T01:03:23;0.90;;;0.73;;
62353;SDS011;48391;49.184;2.418;2023-06-24T01:05:50;0.50;;;0.50;;
62353;SDS011;48391;49.184;2.418;2023-06-24T01:08:16;0.60;;;0.60;;
62353;SDS011;48391;49.184;2.418;2023-06-24T01:10:44;1.10;;;1.10;;
62353;SDS011;48391;49.184;2.418;2023-06-24T01:13:10;0.30;;;0.30;;
62353;SDS011;48391;49.184;2.418;2023-06-24T01:15:36;0.68;;;0.68;;
62353;SDS011;48391;49.184;2.418;2023-06-24T01:23:06;0.70;;;0.57;;
62353;SDS011;48391;49.184;2.418;2023-06-24T01:33:03;2.17;;;1.40;;
62353;SDS011;48391;49.184;2.418;2023-06-24T01:35:31;0.57;;;0.57;;
62353;SDS011;48391;49.184;2.418;2023-06-24T01:37:59;0.77;;;0.77;;
62353;SDS011;48391;49.184;2.418;2023-06-24T01:40:26;0.90;;;0.90;;
62353;SDS011;48391;49.184;2.418;2023-06-24T01:42:53;0.80;;;0.80;;
62353;SDS011;48391;49.184;2.418;2023-06-24T01:45:25;0.75;;;0.57;;
62353;SDS011;48391;49.184;2.418;2023-06-24T01:48:25;0.50;;;0.50;;
62353;SDS011;48391;49.184;2.418;2023-06-24T01:51:06;0.57;;;0.57;;
62353;SDS011;48391;49.184;2.418;2023-06-24T01:53:33;0.95;;;0.60;;
62353;SDS011;48391;49.184;2.418;2023-06-24T01:56:00;1.08;;;1.08;;
62353;SDS011;48391;49.184;2.418;2023-06-24T02:00:53;1.08;;;0.45;;
62353;SDS011;48391;49.184;2.418;2023-06-24T02:03:20;0.50;;;0.50;;
62353;SDS011;48391;49.184;2.418;2023-06-24T02:05:47;0.60;;;0.60;;
62353;SDS011;48391;49.184;2.418;2023-06-24T02:10:43;1.10;;;1.00;;
62353;SDS011;48391;49.184;2.418;2023-06-24T02:13:10;0.40;;;0.40;;
62353;SDS011;48391;49.184;2.418;2023-06-24T02:15:37;0.73;;;0.73;;
62353;SDS011;48391;49.184;2.418;2023-06-24T02:18:04;0.60;;;0.60;;
62353;SDS011;48391;49.184;2.418;2023-06-24T02:20:31;0.52;;;0.52;;
62353;SDS011;48391;49.184;2.418;2023-06-24T02:22:57;0.73;;;0.20;;
62353;SDS011;48391;49.184;2.418;2023-06-24T02:25:24;0.60;;;0.60;;
62353;SDS011;48391;49.184;2.418;2023-06-24T02:27:52;0.50;;;0.50;;
62353;SDS011;48391;49.184;2.418;2023-06-24T02:30:19;0.73;;;0.55;;
62353;SDS011;48391;49.184;2.418;2023-06-24T02:32:46;0.20;;;0.20;;
62353;SDS011;48391;49.184;2.418;2023-06-24T02:35:12;0.55;;;0.55;;
62353;SDS011;48391;49.184;2.418;2023-06-24T02:37:38;0.40;;;0.40;;
62353;SDS011;48391;49.184;2.418;2023-06-24T02:40:07;0.47;;;0.47;;
62353;SDS011;48391;49.184;2.418;2023-06-24T02:42:34;0.57;;;0.35;;
62353;SDS011;48391;49.184;2.418;2023-06-24T02:45:00;0.22;;;0.22;;
62353;SDS011;48391;49.184;2.418;2023-06-24T02:47:26;0.50;;;0.50;;
62353;SDS011;48391;49.184;2.418;2023-06-24T02:49:54;0.52;;;0.52;;
62353;SDS011;48391;49.184;2.418;2023-06-24T02:52:21;0.50;;;0.40;;
62353;SDS011;48391;49.184;2.418;2023-06-24T02:54:47;0.38;;;0.38;;
62353;SDS011;48391;49.184;2.418;2023-06-24T02:57:14;0.30;;;0.30;;
62353;SDS011;48391;49.184;2.418;2023-06-24T02:59:40;0.50;;;0.50;;
62353;SDS011;48391;49.184;2.418;2023-06-24T03:02:06;0.73;;;0.63;;
62353;SDS011;48391;49.184;2.418;2023-06-24T03:04:33;0.90;;;0.90;;
62353;SDS011;48391;49.184;2.418;2023-06-24T03:07:00;0.50;;;0.50;;
62353;SDS011;48391;49.184;2.418;2023-06-24T03:09:27;0.43;;;0.43;;
62353;SDS011;48391;49.184;2.418;2023-06-24T03:11:53;0.43;;;0.43;;
62353;SDS011;48391;49.184;2.418;2023-06-24T03:14:19;0.57;;;0.57;;
62353;SDS011;48391;49.184;2.418;2023-06-24T03:16:45;0.57;;;0.57;;
62353;SDS011;48391;49.184;2.418;2023-06-24T03:19:11;0.63;;;0.60;;
62353;SDS011;48391;49.184;2.418;2023-06-24T03:21:37;1.65;;;0.50;;
62353;SDS011;48391;49.184;2.418;2023-06-24T03:24:04;0.40;;;0.40;;
62353;SDS011;48391;49.184;2.418;2023-06-24T03:26:37;0.60;;;0.60;;
62353;SDS011;48391;49.184;2.418;2023-06-24T03:29:05;0.55;;;0.50;;
62353;SDS011;48391;49.184;2.418;2023-06-24T03:31:32;0.43;;;0.43;;
62353;SDS011;48391;49.184;2.418;2023-06-24T03:33:58;0.60;;;0.60;;
62353;SDS011;48391;49.184;2.418;2023-06-24T03:36:24;0.35;;;0.35;;
62353;SDS011;48391;49.184;2.418;2023-06-24T03:38:50;0.80;;;0.80;;
62353;SDS011;48391;49.184;2.418;2023-06-24T03:41:16;0.60;;;0.60;;
62353;SDS011;48391;49.184;2.418;2023-06-24T03:43:43;0.40;;;0.40;;
62353;SDS011;48391;49.184;2.418;2023-06-24T03:46:12;0.40;;;0.40;;
62353;SDS011;48391;49.184;2.418;2023-06-24T03:48:38;0.68;;;0.68;;
62353;SDS011;48391;49.184;2.418;2023-06-24T03:51:07;0.63;;;0.63;;
62353;SDS011;48391;49.184;2.418;2023-06-24T03:53:33;0.50;;;0.50;;
62353;SDS011;48391;49.184;2.418;2023-06-24T03:55:59;0.93;;;0.60;;
62353;SDS011;48391;49.184;2.418;2023-06-24T03:58:26;0.63;;;0.63;;
62353;SDS011;48391;49.184;2.418;2023-06-24T04:00:52;0.70;;;0.65;;
62353;SDS011;48391;49.184;2.418;2023-06-24T04:03:21;0.45;;;0.45;;
62353;SDS011;48391;49.184;2.418;2023-06-24T04:05:47;0.50;;;0.50;;
62353;SDS011;48391;49.184;2.418;2023-06-24T04:08:13;0.50;;;0.50;;
62353;SDS011;48391;49.184;2.418;2023-06-24T04:10:42;0.80;;;0.60;;
62353;SDS011;48391;49.184;2.418;2023-06-24T04:13:08;0.60;;;0.60;;
62353;SDS011;48391;49.184;2.418;2023-06-24T04:15:34;0.38;;;0.38;;
62353;SDS011;48391;49.184;2.418;2023-06-24T04:18:00;0.28;;;0.17;;
62353;SDS011;48391;49.184;2.418;2023-06-24T04:20:26;0.68;;;0.65;;
62353;SDS011;48391;49.184;2.418;2023-06-24T04:22:52;0.38;;;0.30;;
62353;SDS011;48391;49.184;2.418;2023-06-24T04:25:18;0.55;;;0.43;;
62353;SDS011;48391;49.184;2.418;2023-06-24T04:27:44;0.30;;;0.30;;
62353;SDS011;48391;49.184;2.418;2023-06-24T04:30:10;0.57;;;0.57;;
62353;SDS011;48391;49.184;2.418;2023-06-24T04:32:37;0.45;;;0.45;;
62353;SDS011;48391;49.184;2.418;2023-06-24T04:35:03;0.60;;;0.50;;
62353;SDS011;48391;49.184;2.418;2023-06-24T04:37:29;0.40;;;0.38;;
62353;SDS011;48391;49.184;2.418;2023-06-24T04:39:55;0.40;;;0.40;;
62353;SDS011;48391;49.184;2.418;2023-06-24T04:42:21;0.30;;;0.30;;
62353;SDS011;48391;49.184;2.418;2023-06-24T04:44:48;0.32;;;0.20;;
62353;SDS011;48391;49.184;2.418;2023-06-24T04:47:16;0.30;;;0.30;;
62353;SDS011;48391;49.184;2.418;2023-06-24T04:49:42;0.70;;;0.32;;
62353;SDS011;48391;49.184;2.418;2023-06-24T04:52:08;0.38;;;0.38;;
62353;SDS011;48391;49.184;2.418;2023-06-24T04:54:36;0.47;;;0.47;;
62353;SDS011;48391;49.184;2.418;2023-06-24T04:57:02;0.57;;;0.38;;
62353;SDS011;48391;49.184;2.418;2023-06-24T04:59:28;0.82;;;0.52;;
62353;SDS011;48391;49.184;2.418;2023-06-24T05:01:54;0.85;;;0.73;;
62353;SDS011;48391;49.184;2.418;2023-06-24T05:04:20;0.50;;;0.50;;
62353;SDS011;48391;49.184;2.418;2023-06-24T05:06:46;0.45;;;0.45;;
62353;SDS011;48391;49.184;2.418;2023-06-24T05:09:12;0.52;;;0.17;;
62353;SDS011;48391;49.184;2.418;2023-06-24T05:11:39;0.73;;;0.70;;
62353;SDS011;48391;49.184;2.418;2023-06-24T05:14:05;1.05;;;0.93;;
62353;SDS011;48391;49.184;2.418;2023-06-24T05:16:31;0.77;;;0.77;;
62353;SDS011;48391;49.184;2.418;2023-06-24T05:18:57;0.60;;;0.55;;
62353;SDS011;48391;49.184;2.418;2023-06-24T05:21:23;0.68;;;0.57;;
62353;SDS011;48391;49.184;2.418;2023-06-24T05:23:49;0.52;;;0.52;;
62353;SDS011;48391;49.184;2.418;2023-06-24T05:26:15;0.90;;;0.80;;
62353;SDS011;48391;49.184;2.418;2023-06-24T05:28:41;0.90;;;0.73;;
62353;SDS011;48391;49.184;2.418;2023-06-24T05:31:07;2.88;;;1.42;;
62353;SDS011;48391;49.184;2.418;2023-06-24T05:33:33;1.10;;;1.00;;
62353;SDS011;48391;49.184;2.418;2023-06-24T05:35:59;1.17;;;1.00;;
62353;SDS011;48391;49.184;2.418;2023-06-24T05:38:25;1.00;;;0.95;;
62353;SDS011;48391;49.184;2.418;2023-06-24T05:40:51;0.70;;;0.70;;
62353;SDS011;48391;49.184;2.418;2023-06-24T05:43:17;0.93;;;0.82;;
62353;SDS011;48391;49.184;2.418;2023-06-24T05:45:44;1.40;;;0.95;;
62353;SDS011;48391;49.184;2.418;2023-06-24T05:48:10;0.95;;;0.95;;
62353;SDS011;48391;49.184;2.418;2023-06-24T05:50:36;0.77;;;0.77;;
62353;SDS011;48391;49.184;2.418;2023-06-24T05:53:02;0.70;;;0.68;;
62353;SDS011;48391;49.184;2.418;2023-06-24T05:55:28;0.98;;;0.98;;
62353;SDS011;48391;49.184;2.418;2023-06-24T05:57:54;0.77;;;0.60;;
62353;SDS011;48391;49.184;2.418;2023-06-24T06:00:20;0.65;;;0.65;;
62353;SDS011;48391;49.184;2.418;2023-06-24T06:02:46;0.70;;;0.70;;
62353;SDS011;48391;49.184;2.418;2023-06-24T06:05:12;0.77;;;0.77;;
62353;SDS011;48391;49.184;2.418;2023-06-24T06:07:38;0.47;;;0.47;;
62353;SDS011;48391;49.184;2.418;2023-06-24T06:10:08;0.70;;;0.70;;
62353;SDS011;48391;49.184;2.418;2023-06-24T06:12:35;1.30;;;1.20;;
62353;SDS011;48391;49.184;2.418;2023-06-24T06:15:02;0.90;;;0.90;;
62353;SDS011;48391;49.184;2.418;2023-06-24T06:17:28;1.35;;;1.20;;
62353;SDS011;48391;49.184;2.418;2023-06-24T06:19:54;0.77;;;0.70;;
62353;SDS011;48391;49.184;2.418;2023-06-24T06:22:20;0.80;;;0.75;;
62353;SDS011;48391;49.184;2.418;2023-06-24T06:24:46;0.80;;;0.80;;
62353;SDS011;48391;49.184;2.418;2023-06-24T06:27:12;0.88;;;0.82;;
62353;SDS011;48391;49.184;2.418;2023-06-24T06:29:38;1.13;;;1.02;;
62353;SDS011;48391;49.184;2.418;2023-06-24T06:32:07;1.20;;;1.20;;
62353;SDS011;48391;49.184;2.418;2023-06-24T06:34:33;0.93;;;0.93;;
62353;SDS011;48391;49.184;2.418;2023-06-24T06:36:59;0.70;;;0.70;;
62353;SDS011;48391;49.184;2.418;2023-06-24T06:39:25;1.58;;;1.30;;
62353;SDS011;48391;49.184;2.418;2023-06-24T06:41:51;1.17;;;1.17;;
62353;SDS011;48391;49.184;2.418;2023-06-24T06:44:17;1.17;;;1.08;;
62353;SDS011;48391;49.184;2.418;2023-06-24T06:46:43;1.35;;;1.00;;
62353;SDS011;48391;49.184;2.418;2023-06-24T06:49:12;1.30;;;1.20;;
62353;SDS011;48391;49.184;2.418;2023-06-24T06:51:38;1.60;;;1.50;;
62353;SDS011;48391;49.184;2.418;2023-06-24T06:54:04;1.50;;;1.40;;
62353;SDS011;48391;49.184;2.418;2023-06-24T06:56:30;1.38;;;1.27;;
62353;SDS011;48391;49.184;2.418;2023-06-24T06:58:56;2.75;;;1.48;;
62353;SDS011;48391;49.184;2.418;2023-06-24T07:01:22;1.70;;;1.60;;
62353;SDS011;48391;49.184;2.418;2023-06-24T07:03:49;3.25;;;1.63;;
62353;SDS011;48391;49.184;2.418;2023-06-24T07:06:17;1.63;;;1.52;;
62353;SDS011;48391;49.184;2.418;2023-06-24T07:08:43;1.10;;;1.10;;
62353;SDS011;48391;49.184;2.418;2023-06-24T07:11:13;1.45;;;1.35;;
62353;SDS011;48391;49.184;2.418;2023-06-24T07:13:39;1.60;;;1.50;;
62353;SDS011;48391;49.184;2.418;2023-06-24T07:16:05;1.40;;;1.35;;
62353;SDS011;48391;49.184;2.418;2023-06-24T07:18:31;2.15;;;1.65;;
62353;SDS011;48391;49.184;2.418;2023-06-24T07:20:59;3.35;;;1.83;;
62353;SDS011;48391;49.184;2.418;2023-06-24T07:23:26;2.10;;;1.50;;
62353;SDS011;48391;49.184;2.418;2023-06-24T07:25:52;1.33;;;1.23;;
62353;SDS011;48391;49.184;2.418;2023-06-24T07:28:18;1.40;;;1.30;;
62353;SDS011;48391;49.184;2.418;2023-06-24T07:30:44;1.50;;;1.40;;
62353;SDS011;48391;49.184;2.418;2023-06-24T07:33:13;1.23;;;1.23;;
62353;SDS011;48391;49.184;2.418;2023-06-24T07:35:39;1.52;;;1.25;;
62353;SDS011;48391;49.184;2.418;2023-06-24T07:38:05;1.48;;;1.38;;
62353;SDS011;48391;49.184;2.418;2023-06-24T07:40:31;1.60;;;1.50;;
62353;SDS011;48391;49.184;2.418;2023-06-24T07:42:57;1.10;;;1.00;;
62353;SDS011;48391;49.184;2.418;2023-06-24T07:45:23;3.08;;;1.20;;
62353;SDS011;48391;49.184;2.418;2023-06-24T07:47:50;1.85;;;0.93;;
62353;SDS011;48391;49.184;2.418;2023-06-24T07:50:16;2.08;;;0.90;;
62353;SDS011;48391;49.184;2.418;2023-06-24T07:52:42;0.70;;;0.70;;
62353;SDS011;48391;49.184;2.418;2023-06-24T07:55:08;0.80;;;0.80;;
62353;SDS011;48391;49.184;2.418;2023-06-24T07:57:34;0.70;;;0.70;;
62353;SDS011;48391;49.184;2.418;2023-06-24T08:00:00;0.93;;;0.68;;
62353;SDS011;48391;49.184;2.418;2023-06-24T08:02:27;0.63;;;0.52;;
62353;SDS011;48391;49.184;2.418;2023-06-24T08:04:54;0.93;;;0.70;;
62353;SDS011;48391;49.184;2.418;2023-06-24T08:07:22;1.60;;;1.50;;
62353;SDS011;48391;49.184;2.418;2023-06-24T08:09:48;0.60;;;0.60;;
62353;SDS011;48391;49.184;2.418;2023-06-24T08:12:14;1.25;;;1.02;;
62353;SDS011;48391;49.184;2.418;2023-06-24T08:14:40;1.00;;;0.90;;
62353;SDS011;48391;49.184;2.418;2023-06-24T08:17:09;0.80;;;0.80;;
62353;SDS011;48391;49.184;2.418;2023-06-24T08:19:35;0.50;;;0.50;;
62353;SDS011;48391;49.184;2.418;2023-06-24T08:22:01;1.00;;;1.00;;
62353;SDS011;48391;49.184;2.418;2023-06-24T08:24:33;1.33;;;1.23;;
62353;SDS011;48391;49.184;2.418;2023-06-24T08:26:59;1.13;;;1.13;;
62353;SDS011;48391;49.184;2.418;2023-06-24T08:29:29;0.60;;;0.45;;
62353;SDS011;48391;49.184;2.418;2023-06-24T08:32:03;0.65;;;0.65;;
62353;SDS011;48391;49.184;2.418;2023-06-24T08:34:35;1.05;;;0.95;;
62353;SDS011;48391;49.184;2.418;2023-06-24T08:37:24;1.00;;;0.90;;
62353;SDS011;48391;49.184;2.418;2023-06-24T08:39:58;0.95;;;0.95;;
62353;SDS011;48391;49.184;2.418;2023-06-24T08:47:55;0.60;;;0.60;;
62353;SDS011;48391;49.184;2.418;2023-06-24T08:50:21;0.57;;;0.57;;
62353;SDS011;48391;49.184;2.418;2023-06-24T08:52:51;1.63;;;1.08;;
62353;SDS011;48391;49.184;2.418;2023-06-24T08:55:19;0.82;;;0.82;;
62353;SDS011;48391;49.184;2.418;2023-06-24T08:57:48;1.13;;;1.00;;
62353;SDS011;48391;49.184;2.418;2023-06-24T09:00:14;1.13;;;1.10;;
62353;SDS011;48391;49.184;2.418;2023-06-24T09:02:41;0.73;;;0.73;;
62353;SDS011;48391;49.184;2.418;2023-06-24T09:05:07;0.80;;;0.80;;
62353;SDS011;48391;49.184;2.418;2023-06-24T09:07:33;0.40;;;0.40;;
62353;SDS011;48391;49.184;2.418;2023-06-24T09:09:59;0.60;;;0.60;;
62353;SDS011;48391;49.184;2.418;2023-06-24T09:12:31;0.43;;;0.43;;
62353;SDS011;48391;49.184;2.418;2023-06-24T09:14:57;1.13;;;0.85;;
62353;SDS011;48391;49.184;2.418;2023-06-24T09:17:23;0.55;;;0.55;;
62353;SDS011;48391;49.184;2.418;2023-06-24T09:19:50;0.40;;;0.40;;
62353;SDS011;48391;49.184;2.418;2023-06-24T09:22:16;0.60;;;0.60;;
62353;SDS011;48391;49.184;2.418;2023-06-24T09:24:43;0.63;;;0.50;;
62353;SDS011;48391;49.184;2.418;2023-06-24T09:27:11;0.32;;;0.32;;
62353;SDS011;48391;49.184;2.418;2023-06-24T09:29:39;0.70;;;0.70;;
62353;SDS011;48391;49.184;2.418;2023-06-24T09:32:05;0.43;;;0.43;;
62353;SDS011;48391;49.184;2.418;2023-06-24T09:34:32;0.40;;;0.40;;
62353;SDS011;48391;49.184;2.418;2023-06-24T09:36:58;0.80;;;0.68;;
62353;SDS011;48391;49.184;2.418;2023-06-24T09:39:25;6.53;;;0.98;;
62353;SDS011;48391;49.184;2.418;2023-06-24T09:41:59;0.88;;;0.88;;
62353;SDS011;48391;49.184;2.418;2023-06-24T09:44:26;0.90;;;0.90;;
62353;SDS011;48391;49.184;2.418;2023-06-24T09:46:52;1.58;;;1.48;;
62353;SDS011;48391;49.184;2.418;2023-06-24T09:49:18;0.75;;;0.75;;
62353;SDS011;48391;49.184;2.418;2023-06-24T09:51:45;0.80;;;0.80;;
62353;SDS011;48391;49.184;2.418;2023-06-24T09:54:13;0.95;;;0.73;;
62353;SDS011;48391;49.184;2.418;2023-06-24T09:56:43;1.05;;;0.55;;
62353;SDS011;48391;49.184;2.418;2023-06-24T10:01:36;1.30;;;1.20;;
62353;SDS011;48391;49.184;2.418;2023-06-24T10:04:04;0.55;;;0.55;;
62353;SDS011;48391;49.184;2.418;2023-06-24T10:06:32;1.38;;;0.60;;
62353;SDS011;48391;49.184;2.418;2023-06-24T10:08:58;0.57;;;0.50;;
62353;SDS011;48391;49.184;2.418;2023-06-24T10:11:24;0.63;;;0.63;;
62353;SDS011;48391;49.184;2.418;2023-06-24T10:13:51;0.47;;;0.47;;
62353;SDS011;48391;49.184;2.418;2023-06-24T10:16:17;0.82;;;0.82;;
62353;SDS011;48391;49.184;2.418;2023-06-24T10:18:44;0.80;;;0.80;;
62353;SDS011;48391;49.184;2.418;2023-06-24T10:21:10;0.90;;;0.90;;
62353;SDS011;48391;49.184;2.418;2023-06-24T10:23:50;0.68;;;0.60;;
62353;SDS011;48391;49.184;2.418;2023-06-24T10:26:25;0.43;;;0.43;;
62353;SDS011;48391;49.184;2.418;2023-06-24T10:36:42;1.00;;;0.98;;
62353;SDS011;48391;49.184;2.418;2023-06-24T10:44:48;1.00;;;1.00;;
62353;SDS011;48391;49.184;2.418;2023-06-24T10:47:14;0.80;;;0.80;;
62353;SDS011;48391;49.184;2.418;2023-06-24T10:49:40;1.73;;;1.52;;
62353;SDS011;48391;49.184;2.418;2023-06-24T10:52:12;1.30;;;1.20;;
62353;SDS011;48391;49.184;2.418;2023-06-24T10:54:39;1.45;;;1.38;;
62353;SDS011;48391;49.184;2.418;2023-06-24T10:57:05;0.95;;;0.95;;
62353;SDS011;48391;49.184;2.418;2023-06-24T10:59:35;0.80;;;0.80;;
62353;SDS011;48391;49.184;2.418;2023-06-24T11:02:01;1.48;;;1.38;;
62353;SDS011;48391;49.184;2.418;2023-06-24T11:04:27;1.55;;;1.50;;
62353;SDS011;48391;49.184;2.418;2023-06-24T11:07:00;1.17;;;1.08;;
62353;SDS011;48391;49.184;2.418;2023-06-24T11:09:26;0.80;;;0.80;;
62353;SDS011;48391;49.184;2.418;2023-06-24T11:11:52;0.90;;;0.90;;
62353;SDS011;48391;49.184;2.418;2023-06-24T11:14:22;27.02;;;23.55;;
62353;SDS011;48391;49.184;2.418;2023-06-24T11:16:48;20.15;;;16.15;;
62353;SDS011;48391;49.184;2.418;2023-06-24T11:19:14;7.40;;;6.70;;
62353;SDS011;48391;49.184;2.418;2023-06-24T11:21:40;3.83;;;3.53;;
62353;SDS011;48391;49.184;2.418;2023-06-24T11:24:06;24.40;;;22.20;;
62353;SDS011;48391;49.184;2.418;2023-06-24T11:26:32;36.35;;;32.92;;
62353;SDS011;48391;49.184;2.418;2023-06-24T11:28:58;31.58;;;28.15;;
62353;SDS011;48391;49.184;2.418;2023-06-24T11:31:25;17.95;;;16.15;;
62353;SDS011;48391;49.184;2.418;2023-06-24T11:33:51;6.82;;;6.22;;
62353;SDS011;48391;49.184;2.418;2023-06-24T11:36:17;3.53;;;3.22;;
62353;SDS011;48391;49.184;2.418;2023-06-24T11:38:46;2.35;;;2.13;;
62353;SDS011;48391;49.184;2.418;2023-06-24T11:41:12;3.53;;;2.25;;
62353;SDS011;48391;49.184;2.418;2023-06-24T11:43:43;2.28;;;2.15;;
62353;SDS011;48391;49.184;2.418;2023-06-24T11:46:12;2.15;;;1.98;;
62353;SDS011;48391;49.184;2.418;2023-06-24T11:48:46;2.15;;;1.77;;
62353;SDS011;48391;49.184;2.418;2023-06-24T11:51:12;1.95;;;1.73;;
62353;SDS011;48391;49.184;2.418;2023-06-24T11:53:42;1.25;;;1.25;;
62353;SDS011;48391;49.184;2.418;2023-06-24T11:56:09;1.80;;;1.70;;
62353;SDS011;48391;49.184;2.418;2023-06-24T11:58:35;1.33;;;1.23;;
62353;SDS011;48391;49.184;2.418;2023-06-24T12:01:01;0.98;;;0.90;;
62353;SDS011;48391;49.184;2.418;2023-06-24T12:03:28;2.85;;;1.00;;
62353;SDS011;48391;49.184;2.418;2023-06-24T12:05:57;1.20;;;1.10;;
62353;SDS011;48391;49.184;2.418;2023-06-24T12:08:23;0.93;;;0.93;;
62353;SDS011;48391;49.184;2.418;2023-06-24T12:10:49;0.93;;;0.93;;
62353;SDS011;48391;49.184;2.418;2023-06-24T12:13:15;1.20;;;1.15;;
62353;SDS011;48391;49.184;2.418;2023-06-24T12:15:41;0.85;;;0.85;;
62353;SDS011;48391;49.184;2.418;2023-06-24T12:18:07;1.00;;;1.00;;
62353;SDS011;48391;49.184;2.418;2023-06-24T12:20:33;1.20;;;1.20;;
62353;SDS011;48391;49.184;2.418;2023-06-24T12:23:01;1.58;;;1.48;;
62353;SDS011;48391;49.184;2.418;2023-06-24T12:25:28;1.58;;;1.50;;
62353;SDS011;48391;49.184;2.418;2023-06-24T12:27:54;1.13;;;1.13;;
62353;SDS011;48391;49.184;2.418;2023-06-24T12:30:21;1.00;;;1.00;;
62353;SDS011;48391;49.184;2.418;2023-06-24T12:32:49;1.48;;;1.38;;
62353;SDS011;48391;49.184;2.418;2023-06-24T12:35:15;0.85;;;0.85;;
62353;SDS011;48391;49.184;2.418;2023-06-24T12:37:41;1.27;;;1.27;;
62353;SDS011;48391;49.184;2.418;2023-06-24T12:40:10;1.30;;;1.20;;
62353;SDS011;48391;49.184;2.418;2023-06-24T12:42:36;2.05;;;1.30;;
62353;SDS011;48391;49.184;2.418;2023-06-24T12:45:02;1.25;;;1.00;;
62353;SDS011;48391;49.184;2.418;2023-06-24T12:47:28;0.88;;;0.80;;
62353;SDS011;48391;49.184;2.418;2023-06-24T12:52:30;1.40;;;1.30;;
62353;SDS011;48391;49.184;2.418;2023-06-24T12:54:56;0.80;;;0.80;;
62353;SDS011;48391;49.184;2.418;2023-06-24T12:57:22;0.93;;;0.90;;
62353;SDS011;48391;49.184;2.418;2023-06-24T12:59:48;0.73;;;0.73;;
62353;SDS011;48391;49.184;2.418;2023-06-24T13:02:14;0.90;;;0.90;;
62353;SDS011;48391;49.184;2.418;2023-06-24T13:04:40;0.77;;;0.77;;
62353;SDS011;48391;49.184;2.418;2023-06-24T13:07:06;1.30;;;1.25;;
62353;SDS011;48391;49.184;2.418;2023-06-24T13:09:34;1.27;;;1.17;;
62353;SDS011;48391;49.184;2.418;2023-06-24T13:12:00;1.00;;;1.00;;
62353;SDS011;48391;49.184;2.418;2023-06-24T13:14:26;1.50;;;1.40;;
62353;SDS011;48391;49.184;2.418;2023-06-24T13:16:53;1.30;;;1.20;;
62353;SDS011;48391;49.184;2.418;2023-06-24T13:19:19;0.80;;;0.80;;
62353;SDS011;48391;49.184;2.418;2023-06-24T13:21:46;0.98;;;0.90;;
62353;SDS011;48391;49.184;2.418;2023-06-24T13:24:12;1.58;;;1.48;;
62353;SDS011;48391;49.184;2.418;2023-06-24T13:26:38;1.33;;;1.33;;
62353;SDS011;48391;49.184;2.418;2023-06-24T13:29:05;0.93;;;0.93;;
62353;SDS011;48391;49.184;2.418;2023-06-24T13:31:32;1.27;;;1.23;;
62353;SDS011;48391;49.184;2.418;2023-06-24T13:33:58;1.25;;;1.15;;
62353;SDS011;48391;49.184;2.418;2023-06-24T13:36:28;1.30;;;1.30;;
62353;SDS011;48391;49.184;2.418;2023-06-24T13:38:55;0.77;;;0.77;;
62353;SDS011;48391;49.184;2.418;2023-06-24T13:41:28;1.27;;;1.27;;
62353;SDS011;48391;49.184;2.418;2023-06-24T13:43:57;0.93;;;0.93;;
62353;SDS011;48391;49.184;2.418;2023-06-24T13:46:23;1.83;;;1.50;;
62353;SDS011;48391;49.184;2.418;2023-06-24T13:48:49;1.10;;;1.10;;
62353;SDS011;48391;49.184;2.418;2023-06-24T13:51:16;0.82;;;0.82;;
62353;SDS011;48391;49.184;2.418;2023-06-24T13:53:42;1.00;;;1.00;;
62353;SDS011;48391;49.184;2.418;2023-06-24T13:56:08;1.02;;;0.95;;
62353;SDS011;48391;49.184;2.418;2023-06-24T13:58:37;1.00;;;1.00;;
62353;SDS011;48391;49.184;2.418;2023-06-24T14:01:03;1.00;;;1.00;;
62353;SDS011;48391;49.184;2.418;2023-06-24T14:03:29;1.20;;;1.20;;
62353;SDS011;48391;49.184;2.418;2023-06-24T14:05:55;1.65;;;1.52;;
62353;SDS011;48391;49.184;2.418;2023-06-24T14:08:22;1.27;;;1.27;;
62353;SDS011;48391;49.184;2.418;2023-06-24T14:10:48;0.93;;;0.93;;
62353;SDS011;48391;49.184;2.418;2023-06-24T14:13:14;1.70;;;1.58;;
62353;SDS011;48391;49.184;2.418;2023-06-24T14:15:40;1.17;;;1.17;;
62353;SDS011;48391;49.184;2.418;2023-06-24T14:18:06;1.15;;;1.13;;
62353;SDS011;48391;49.184;2.418;2023-06-24T14:20:33;0.90;;;0.90;;
62353;SDS011;48391;49.184;2.418;2023-06-24T14:22:59;1.10;;;1.10;;
62353;SDS011;48391;49.184;2.418;2023-06-24T14:25:25;0.85;;;0.85;;
62353;SDS011;48391;49.184;2.418;2023-06-24T14:27:51;1.10;;;1.10;;
62353;SDS011;48391;49.184;2.418;2023-06-24T14:30:17;0.70;;;0.70;;
62353;SDS011;48391;49.184;2.418;2023-06-24T14:32:43;1.10;;;1.10;;
62353;SDS011;48391;49.184;2.418;2023-06-24T14:35:09;1.00;;;1.00;;
62353;SDS011;48391;49.184;2.418;2023-06-24T14:37:35;1.10;;;1.08;;
62353;SDS011;48391;49.184;2.418;2023-06-24T14:40:01;0.98;;;0.98;;
62353;SDS011;48391;49.184;2.418;2023-06-24T14:42:27;0.80;;;0.80;;
62353;SDS011;48391;49.184;2.418;2023-06-24T14:44:53;0.88;;;0.88;;
62353;SDS011;48391;49.184;2.418;2023-06-24T14:47:19;1.17;;;1.08;;
62353;SDS011;48391;49.184;2.418;2023-06-24T14:49:45;1.08;;;1.00;;
62353;SDS011;48391;49.184;2.418;2023-06-24T14:52:11;1.00;;;1.00;;
62353;SDS011;48391;49.184;2.418;2023-06-24T14:54:37;1.30;;;1.30;;
62353;SDS011;48391;49.184;2.418;2023-06-24T14:57:03;1.00;;;1.00;;
62353;SDS011;48391;49.184;2.418;2023-06-24T14:59:29;1.02;;;1.02;;
62353;SDS011;48391;49.184;2.418;2023-06-24T15:01:55;1.05;;;1.05;;
62353;SDS011;48391;49.184;2.418;2023-06-24T15:04:21;1.00;;;1.00;;
62353;SDS011;48391;49.184;2.418;2023-06-24T15:06:47;1.10;;;1.10;;
62353;SDS011;48391;49.184;2.418;2023-06-24T15:09:13;2.05;;;1.95;;
62353;SDS011;48391;49.184;2.418;2023-06-24T15:11:43;1.83;;;1.33;;
62353;SDS011;48391;49.184;2.418;2023-06-24T15:14:09;1.33;;;1.23;;
62353;SDS011;48391;49.184;2.418;2023-06-24T15:16:35;1.42;;;1.33;;
62353;SDS011;48391;49.184;2.418;2023-06-24T15:19:01;1.63;;;1.50;;
62353;SDS011;48391;49.184;2.418;2023-06-24T15:21:27;1.23;;;1.13;;
62353;SDS011;48391;49.184;2.418;2023-06-24T15:23:53;1.30;;;1.30;;
62353;SDS011;48391;49.184;2.418;2023-06-24T15:26:19;0.82;;;0.82;;
62353;SDS011;48391;49.184;2.418;2023-06-24T15:28:45;1.25;;;1.25;;